Time;durP1;ratioP1;P1;durP2;ratioP2;P2;SDS_P1;SDS_P2;PMS_P1;PMS_P2;Temp;Humidity;BMP_temperature;BMP_pressure;BME280_temperature;BME280_humidity;BME280_pressure;Samples;Min_cycle;Max_cycle;Signal;HPM_P1;HPM_P2
2021/10/17 00:00:46;;;;;;;;;0.00;0.00;;;;;;;;2761380;52;8908;-64
2021/10/17 00:03:11;;;;;;;;;1.00;1.00;;;;;;;;2761378;52;8876;-64
2021/10/17 00:05:37;;;;;;;;;0.00;0.00;;;;;;;;2761994;51;8789;-64
2021/10/17 00:08:04;;;;;;;;;1.50;1.50;;;;;;;;2761575;51;8912;-64
2021/10/17 00:10:31;;;;;;;;;0.00;0.00;;;;;;;;2761411;51;8778;-63
2021/10/17 00:12:58;;;;;;;;;0.60;0.00;;;;;;;;2761658;51;8825;-64
2021/10/17 00:15:24;;;;;;;;;0.40;0.00;;;;;;;;2761440;51;8782;-64
2021/10/17 00:17:50;;;;;;;;;2.00;0.60;;;;;;;;2761416;51;8827;-63
2021/10/17 00:20:17;;;;;;;;;1.00;1.00;;;;;;;;2761376;51;8797;-64
2021/10/17 00:22:43;;;;;;;;;0.20;0.20;;;;;;;;2761515;51;8774;-64
2021/10/17 00:25:11;;;;;;;;;1.40;1.00;;;;;;;;2761368;51;8889;-63
2021/10/17 00:27:37;;;;;;;;;0.60;0.60;;;;;;;;2761496;51;8770;-64
2021/10/17 00:30:03;;;;;;;;;0.00;0.00;;;;;;;;2761459;51;8774;-64
2021/10/17 00:32:28;;;;;;;;;0.00;0.00;;;;;;;;2761420;52;8770;-63
2021/10/17 00:34:54;;;;;;;;;1.50;0.50;;;;;;;;2761777;52;8773;-63
2021/10/17 00:37:20;;;;;;;;;1.00;1.00;;;;;;;;2761487;51;8793;-64
2021/10/17 00:39:46;;;;;;;;;0.00;0.00;;;;;;;;2761758;52;8778;-63
2021/10/17 00:42:12;;;;;;;;;0.00;0.00;;;;;;;;2761625;52;8751;-63
2021/10/17 00:44:38;;;;;;;;;0.00;0.00;;;;;;;;2761454;51;8813;-63
2021/10/17 00:47:05;;;;;;;;;0.00;0.00;;;;;;;;2761315;51;11452;-63
2021/10/17 00:49:30;;;;;;;;;0.00;0.00;;;;;;;;2761287;51;8814;-64
2021/10/17 00:51:56;;;;;;;;;0.00;0.00;;;;;;;;2761251;52;9423;-64
2021/10/17 00:54:22;;;;;;;;;0.00;0.00;;;;;;;;2761377;51;8844;-64
2021/10/17 00:56:47;;;;;;;;;0.00;0.00;;;;;;;;2761256;52;11445;-63
2021/10/17 00:59:13;;;;;;;;;0.00;0.00;;;;;;;;2761229;52;9451;-63
2021/10/17 01:01:39;;;;;;;;;0.00;0.00;;;;;;;;2761547;52;8861;-64
2021/10/17 01:04:05;;;;;;;;;0.00;0.00;;;;;;;;2761551;51;8798;-63
2021/10/17 01:06:30;;;;;;;;;0.75;0.00;;;;;;;;2761298;51;8810;-63
2021/10/17 01:08:56;;;;;;;;;0.25;0.00;;;;;;;;2761153;52;8922;-65
2021/10/17 01:11:22;;;;;;;;;0.00;0.00;;;;;;;;2761408;52;8782;-62
2021/10/17 01:13:47;;;;;;;;;0.00;0.00;;;;;;;;2761623;51;8904;-63
2021/10/17 01:16:13;;;;;;;;;0.50;0.50;;;;;;;;2761153;52;11541;-63
2021/10/17 01:18:39;;;;;;;;;2.75;1.00;;;;;;;;2761211;51;9397;-63
2021/10/17 01:21:05;;;;;;;;;0.00;0.00;;;;;;;;2761249;52;8785;-63
2021/10/17 01:23:30;;;;;;;;;0.00;0.00;;;;;;;;2761146;51;8787;-63
2021/10/17 01:25:56;;;;;;;;;0.75;0.00;;;;;;;;2761324;52;9530;-63
2021/10/17 01:28:22;;;;;;;;;0.00;0.00;;;;;;;;2761293;51;9428;-63
2021/10/17 01:30:49;;;;;;;;;0.00;0.00;;;;;;;;2761258;52;8778;-65
2021/10/17 01:33:15;;;;;;;;;0.00;0.00;;;;;;;;2761324;52;8774;-62
2021/10/17 01:35:41;;;;;;;;;0.00;0.00;;;;;;;;2761107;51;8931;-63
2021/10/17 01:38:07;;;;;;;;;1.25;0.00;;;;;;;;2761412;51;8796;-62
2021/10/17 01:40:33;;;;;;;;;0.00;0.00;;;;;;;;2761117;51;8782;-63
2021/10/17 01:42:59;;;;;;;;;0.00;0.00;;;;;;;;2760973;51;8895;-65
2021/10/17 01:45:24;;;;;;;;;0.00;0.00;;;;;;;;2761197;52;8986;-63
2021/10/17 01:47:51;;;;;;;;;0.00;0.00;;;;;;;;2761298;51;8786;-62
2021/10/17 01:50:17;;;;;;;;;0.00;0.00;;;;;;;;2761136;52;8778;-63
2021/10/17 01:52:43;;;;;;;;;0.00;0.00;;;;;;;;2761053;51;8896;-64
2021/10/17 01:55:09;;;;;;;;;0.00;0.00;;;;;;;;2761549;51;8782;-64
2021/10/17 01:57:35;;;;;;;;;0.00;0.00;;;;;;;;2761465;51;8797;-64
2021/10/17 02:00:00;;;;;;;;;0.00;0.00;;;;;;;;2760995;51;8786;-64
2021/10/17 02:02:26;;;;;;;;;0.00;0.00;;;;;;;;2760996;52;9857;-64
2021/10/17 02:04:51;;;;;;;;;1.00;0.00;;;;;;;;2760959;52;8863;-63
2021/10/17 02:07:17;;;;;;;;;0.00;0.00;;;;;;;;2761441;52;8811;-63
2021/10/17 02:09:43;;;;;;;;;0.00;0.00;;;;;;;;2761144;52;8782;-65
2021/10/17 02:12:08;;;;;;;;;1.00;0.00;;;;;;;;2760984;51;8802;-63
2021/10/17 02:14:35;;;;;;;;;0.00;0.00;;;;;;;;2761079;51;8990;-63
2021/10/17 02:17:01;;;;;;;;;0.00;0.00;;;;;;;;2761186;52;8885;-63
2021/10/17 02:19:27;;;;;;;;;1.00;1.00;;;;;;;;2761211;51;8967;-62
2021/10/17 02:21:52;;;;;;;;;0.25;0.25;;;;;;;;2761179;52;11444;-63
2021/10/17 02:24:18;;;;;;;;;0.75;0.00;;;;;;;;2761184;51;8872;-63
2021/10/17 02:26:43;;;;;;;;;0.75;0.00;;;;;;;;2760982;52;8771;-63
2021/10/17 02:29:09;;;;;;;;;0.00;0.00;;;;;;;;2760999;51;8871;-64
2021/10/17 02:31:35;;;;;;;;;1.00;0.00;;;;;;;;2761041;51;8778;-63
2021/10/17 02:34:00;;;;;;;;;0.00;0.00;;;;;;;;2761265;51;8880;-63
2021/10/17 02:36:26;;;;;;;;;0.00;0.00;;;;;;;;2760941;52;8892;-64
2021/10/17 02:38:51;;;;;;;;;1.00;0.25;;;;;;;;2760926;51;8790;-63
2021/10/17 02:41:17;;;;;;;;;0.00;0.00;;;;;;;;2760777;52;8892;-63
2021/10/17 02:43:42;;;;;;;;;0.25;0.00;;;;;;;;2761126;51;8794;-64
2021/10/17 02:46:08;;;;;;;;;0.00;0.00;;;;;;;;2760935;52;8879;-62
2021/10/17 02:48:34;;;;;;;;;0.00;0.00;;;;;;;;2762076;51;8771;-63
2021/10/17 02:50:59;;;;;;;;;0.00;0.00;;;;;;;;2762292;51;8799;-63
2021/10/17 02:53:25;;;;;;;;;1.00;0.20;;;;;;;;2762273;51;8811;-63
2021/10/17 02:55:51;;;;;;;;;0.75;0.75;;;;;;;;2761756;51;8860;-63
2021/10/17 02:58:16;;;;;;;;;0.00;0.00;;;;;;;;2761876;51;8811;-62
2021/10/17 03:00:42;;;;;;;;;0.00;0.00;;;;;;;;2761695;52;8793;-63
2021/10/17 03:03:08;;;;;;;;;1.25;0.00;;;;;;;;2761595;52;8798;-64
2021/10/17 03:05:34;;;;;;;;;0.50;0.00;;;;;;;;2761709;52;8785;-63
2021/10/17 03:07:59;;;;;;;;;0.50;0.50;;;;;;;;2761853;51;8797;-64
2021/10/17 03:10:25;;;;;;;;;1.50;0.00;;;;;;;;2761633;51;9467;-64
2021/10/17 03:12:51;;;;;;;;;0.00;0.00;;;;;;;;2761569;51;11461;-64
2021/10/17 03:15:16;;;;;;;;;0.25;0.25;;;;;;;;2761634;52;8865;-64
2021/10/17 03:17:42;;;;;;;;;2.00;1.00;;;;;;;;2761911;52;8829;-64
2021/10/17 03:20:09;;;;;;;;;0.00;0.00;;;;;;;;2762121;51;8786;-65
2021/10/17 03:22:35;;;;;;;;;0.20;0.20;;;;;;;;2762030;51;8776;-63
2021/10/17 03:25:01;;;;;;;;;0.20;0.20;;;;;;;;2761744;51;8758;-63
2021/10/17 03:27:27;;;;;;;;;2.50;1.25;;;;;;;;2766589;51;9388;-62
2021/10/17 03:29:52;;;;;;;;;0.00;0.00;;;;;;;;2761825;52;8786;-63
2021/10/17 03:32:18;;;;;;;;;0.25;0.25;;;;;;;;2761596;51;8794;-63
2021/10/17 03:34:44;;;;;;;;;0.25;0.25;;;;;;;;2761511;52;8896;-63
2021/10/17 03:37:09;;;;;;;;;1.00;0.00;;;;;;;;2761669;51;8770;-63
2021/10/17 03:39:35;;;;;;;;;1.50;0.75;;;;;;;;2761917;52;8794;-63
2021/10/17 03:42:00;;;;;;;;;0.75;0.75;;;;;;;;2762058;51;8770;-63
2021/10/17 03:44:26;;;;;;;;;0.00;0.00;;;;;;;;2761599;52;8782;-62
2021/10/17 03:46:51;;;;;;;;;1.25;1.25;;;;;;;;2761514;52;8778;-63
2021/10/17 03:49:17;;;;;;;;;1.00;0.00;;;;;;;;2761882;51;9499;-63
2021/10/17 03:51:43;;;;;;;;;2.25;0.75;;;;;;;;2761500;52;8802;-64
2021/10/17 03:54:08;;;;;;;;;1.00;1.00;;;;;;;;2761920;51;8905;-59
2021/10/17 03:56:34;;;;;;;;;0.75;0.75;;;;;;;;2761889;52;8869;-63
2021/10/17 03:58:59;;;;;;;;;1.00;1.00;;;;;;;;2761496;52;8775;-63
2021/10/17 04:01:25;;;;;;;;;0.25;0.25;;;;;;;;2761567;52;8788;-62
2021/10/17 04:03:51;;;;;;;;;1.00;0.25;;;;;;;;2761524;51;8800;-63
2021/10/17 04:06:16;;;;;;;;;0.00;0.00;;;;;;;;2761489;52;8789;-61
2021/10/17 04:08:43;;;;;;;;;0.50;0.50;;;;;;;;2761421;52;8816;-63
2021/10/17 04:11:08;;;;;;;;;0.00;0.00;;;;;;;;2761735;51;8888;-63
2021/10/17 04:13:34;;;;;;;;;0.00;0.00;;;;;;;;2761900;52;8782;-64
2021/10/17 04:16:00;;;;;;;;;1.50;1.00;;;;;;;;2761550;51;8774;-63
2021/10/17 04:18:25;;;;;;;;;0.50;0.50;;;;;;;;2761801;51;8767;-64
2021/10/17 04:20:51;;;;;;;;;1.50;0.75;;;;;;;;2761444;52;9538;-64
2021/10/17 04:23:16;;;;;;;;;0.00;0.00;;;;;;;;2761258;52;8798;-64
2021/10/17 04:25:42;;;;;;;;;0.00;0.00;;;;;;;;2761662;51;8766;-63
2021/10/17 04:28:08;;;;;;;;;0.00;0.00;;;;;;;;2761724;51;8779;-63
2021/10/17 04:30:33;;;;;;;;;0.75;0.75;;;;;;;;2761225;51;8965;-63
2021/10/17 04:32:59;;;;;;;;;1.00;1.00;;;;;;;;2761276;52;9439;-63
2021/10/17 04:35:24;;;;;;;;;2.50;0.50;;;;;;;;2761871;52;8770;-63
2021/10/17 04:37:50;;;;;;;;;1.00;0.00;;;;;;;;2761300;51;8806;-64
2021/10/17 04:40:17;;;;;;;;;0.00;0.00;;;;;;;;2761544;51;8814;-64
2021/10/17 04:42:43;;;;;;;;;1.00;0.00;;;;;;;;2761413;52;8782;-64
2021/10/17 04:45:09;;;;;;;;;0.00;0.00;;;;;;;;2761319;51;8766;-63
2021/10/17 04:47:34;;;;;;;;;0.80;0.80;;;;;;;;2761267;51;8770;-64
2021/10/17 04:50:00;;;;;;;;;0.00;0.00;;;;;;;;2761277;52;8774;-64
2021/10/17 04:52:26;;;;;;;;;1.00;1.00;;;;;;;;2761618;52;8789;-65
2021/10/17 04:54:51;;;;;;;;;1.00;1.00;;;;;;;;2761225;51;8774;-65
2021/10/17 04:57:17;;;;;;;;;0.00;0.00;;;;;;;;2761350;51;8770;-63
2021/10/17 04:59:43;;;;;;;;;0.00;0.00;;;;;;;;2761365;52;8774;-64
2021/10/17 05:02:08;;;;;;;;;1.00;1.00;;;;;;;;2761308;51;9436;-64
2021/10/17 05:04:35;;;;;;;;;0.50;0.50;;;;;;;;2761291;52;12129;-64
2021/10/17 05:07:00;;;;;;;;;1.00;1.00;;;;;;;;2761170;51;8790;-63
2021/10/17 05:09:26;;;;;;;;;1.00;0.00;;;;;;;;2760966;52;8775;-62
2021/10/17 05:11:51;;;;;;;;;0.75;0.75;;;;;;;;2761204;52;8924;-65
2021/10/17 05:14:17;;;;;;;;;0.00;0.00;;;;;;;;2761498;51;8819;-64
2021/10/17 05:16:43;;;;;;;;;1.00;1.00;;;;;;;;2761403;51;8786;-64
2021/10/17 05:19:08;;;;;;;;;0.00;0.00;;;;;;;;2765778;51;8801;-63
2021/10/17 05:21:34;;;;;;;;;0.00;0.00;;;;;;;;2761267;52;8781;-65
2021/10/17 05:24:00;;;;;;;;;0.00;0.00;;;;;;;;2761133;51;8787;-65
2021/10/17 05:26:25;;;;;;;;;1.25;1.00;;;;;;;;2761305;52;8774;-64
2021/10/17 05:28:51;;;;;;;;;0.00;0.00;;;;;;;;2761162;52;8786;-64
2021/10/17 05:31:16;;;;;;;;;1.00;0.00;;;;;;;;2761376;51;8864;-63
2021/10/17 05:33:44;;;;;;;;;0.50;0.50;;;;;;;;2760962;52;8778;-62
2021/10/17 05:36:10;;;;;;;;;0.00;0.00;;;;;;;;2760851;51;8805;-63
2021/10/17 05:38:35;;;;;;;;;1.40;1.00;;;;;;;;2761039;51;8767;-64
2021/10/17 05:41:01;;;;;;;;;0.00;0.00;;;;;;;;2761071;51;8853;-66
2021/10/17 05:43:27;;;;;;;;;0.00;0.00;;;;;;;;2761023;51;8797;-63
2021/10/17 05:45:52;;;;;;;;;1.00;1.00;;;;;;;;2761150;52;8787;-63
2021/10/17 05:48:18;;;;;;;;;1.75;1.75;;;;;;;;2761154;52;8793;-64
2021/10/17 05:50:45;;;;;;;;;0.00;0.00;;;;;;;;2761167;52;8913;-66
2021/10/17 05:53:11;;;;;;;;;0.50;0.50;;;;;;;;2761090;51;8786;-64
2021/10/17 05:55:39;;;;;;;;;0.50;0.25;;;;;;;;2761449;52;8787;-63
2021/10/17 05:58:04;;;;;;;;;0.40;0.40;;;;;;;;2760991;52;8778;-63
2021/10/17 06:00:30;;;;;;;;;0.25;0.25;;;;;;;;2761362;52;8774;-64
2021/10/17 06:02:56;;;;;;;;;0.00;0.00;;;;;;;;2761121;51;8771;-65
2021/10/17 06:05:22;;;;;;;;;0.00;0.00;;;;;;;;2760985;51;8778;-63
2021/10/17 06:07:47;;;;;;;;;1.00;0.50;;;;;;;;2761280;52;8774;-64
2021/10/17 06:10:13;;;;;;;;;0.25;0.25;;;;;;;;2761070;52;8797;-65
2021/10/17 06:12:40;;;;;;;;;0.00;0.00;;;;;;;;2761070;51;8802;-64
2021/10/17 06:15:07;;;;;;;;;0.80;0.20;;;;;;;;2761014;52;8766;-64
2021/10/17 06:17:33;;;;;;;;;1.40;1.00;;;;;;;;2761116;51;8762;-64
2021/10/17 06:19:58;;;;;;;;;2.00;0.00;;;;;;;;2761035;51;8782;-65
2021/10/17 06:22:24;;;;;;;;;1.00;1.00;;;;;;;;2761585;51;8802;-64
2021/10/17 06:24:50;;;;;;;;;1.00;1.00;;;;;;;;2761898;51;8790;-65
2021/10/17 06:27:16;;;;;;;;;2.00;1.25;;;;;;;;2761822;51;8787;-64
2021/10/17 06:29:42;;;;;;;;;0.60;0.60;;;;;;;;2761808;51;8774;-64
2021/10/17 06:32:08;;;;;;;;;2.00;2.00;;;;;;;;2762015;52;8778;-64
2021/10/17 06:34:33;;;;;;;;;0.25;0.25;;;;;;;;2761732;52;9419;-64
2021/10/17 06:36:59;;;;;;;;;1.00;1.00;;;;;;;;2761937;52;8793;-64
2021/10/17 06:39:25;;;;;;;;;3.25;2.00;;;;;;;;2761747;52;8790;-65
2021/10/17 06:41:50;;;;;;;;;0.75;0.75;;;;;;;;2761806;51;8783;-64
2021/10/17 06:44:16;;;;;;;;;1.25;1.25;;;;;;;;2761807;51;8786;-65
2021/10/17 06:46:42;;;;;;;;;2.80;2.20;;;;;;;;2761750;51;8779;-64
2021/10/17 06:49:08;;;;;;;;;3.25;2.50;;;;;;;;2761842;51;8904;-64
2021/10/17 06:51:33;;;;;;;;;7.20;2.60;;;;;;;;2761905;52;8766;-63
2021/10/17 06:53:59;;;;;;;;;2.00;2.00;;;;;;;;2761693;52;9443;-64
2021/10/17 06:56:24;;;;;;;;;0.75;0.75;;;;;;;;2762122;51;8778;-64
2021/10/17 06:58:50;;;;;;;;;2.00;2.00;;;;;;;;2761824;51;8786;-65
2021/10/17 07:01:16;;;;;;;;;1.50;0.75;;;;;;;;2761536;52;8774;-64
2021/10/17 07:03:41;;;;;;;;;3.75;3.75;;;;;;;;2761653;52;8838;-67
2021/10/17 07:06:07;;;;;;;;;3.50;2.50;;;;;;;;2762127;51;8897;-66
2021/10/17 07:08:33;;;;;;;;;2.50;1.25;;;;;;;;2768555;51;8773;-65
2021/10/17 07:10:59;;;;;;;;;1.50;1.00;;;;;;;;2773469;51;11459;-65
2021/10/17 07:13:25;;;;;;;;;2.60;2.60;;;;;;;;2767474;51;8807;-67
2021/10/17 07:15:50;;;;;;;;;4.50;3.00;;;;;;;;2768413;51;8806;-66
2021/10/17 07:18:16;;;;;;;;;2.00;2.00;;;;;;;;2773829;51;8777;-65
2021/10/17 07:20:42;;;;;;;;;3.80;2.00;;;;;;;;2773445;51;8870;-65
2021/10/17 07:23:08;;;;;;;;;5.50;3.00;;;;;;;;2773899;51;8813;-65
2021/10/17 07:25:33;;;;;;;;;6.00;3.50;;;;;;;;2773393;51;8876;-68
2021/10/17 07:27:59;;;;;;;;;2.75;2.75;;;;;;;;2773810;51;8785;-66
2021/10/17 07:30:25;;;;;;;;;2.00;2.00;;;;;;;;2773526;51;11437;-66
2021/10/17 07:32:51;;;;;;;;;3.25;3.25;;;;;;;;2773499;51;9470;-64
2021/10/17 07:35:16;;;;;;;;;2.75;2.00;;;;;;;;2773290;51;8882;-64
2021/10/17 07:37:42;;;;;;;;;3.00;3.00;;;;;;;;2773623;51;8788;-66
2021/10/17 07:40:08;;;;;;;;;3.80;3.80;;;;;;;;2773412;51;8777;-64
2021/10/17 07:42:34;;;;;;;;;3.50;2.25;;;;;;;;2773316;51;9502;-66
2021/10/17 07:45:00;;;;;;;;;3.40;3.40;;;;;;;;2773415;51;8919;-71
2021/10/17 07:47:25;;;;;;;;;5.25;3.25;;;;;;;;2773420;51;8792;-68
2021/10/17 07:49:52;;;;;;;;;4.50;3.25;;;;;;;;2773358;51;8815;-71
2021/10/17 07:52:18;;;;;;;;;2.40;2.40;;;;;;;;2772361;51;8866;-67
2021/10/17 07:54:43;;;;;;;;;2.60;1.00;;;;;;;;2769364;51;9440;-65
2021/10/17 07:57:10;;;;;;;;;1.25;1.00;;;;;;;;2769417;51;8918;-67
2021/10/17 07:59:36;;;;;;;;;3.60;2.60;;;;;;;;2769160;51;8773;-68
2021/10/17 08:02:02;;;;;;;;;3.50;2.50;;;;;;;;2769402;51;8779;-68
2021/10/17 08:04:27;;;;;;;;;3.75;2.75;;;;;;;;2769038;51;8924;-67
2021/10/17 08:06:53;;;;;;;;;5.75;2.50;;;;;;;;2769622;51;8804;-68
2021/10/17 08:09:19;;;;;;;;;3.50;2.25;;;;;;;;2769096;51;8842;-67
2021/10/17 08:11:45;;;;;;;;;2.40;2.40;;;;;;;;2769190;51;8788;-67
2021/10/17 08:14:11;;;;;;;;;3.00;2.50;;;;;;;;2769583;51;8820;-66
2021/10/17 08:16:36;;;;;;;;;3.00;1.00;;;;;;;;2769511;51;8773;-63
2021/10/17 08:19:03;;;;;;;;;2.50;2.50;;;;;;;;2769500;51;8800;-65
2021/10/17 08:21:30;;;;;;;;;5.40;3.40;;;;;;;;2769428;51;8780;-67
2021/10/17 08:23:56;;;;;;;;;2.00;2.00;;;;;;;;2769015;51;8805;-66
2021/10/17 08:26:21;;;;;;;;;2.20;2.20;;;;;;;;2769378;51;8786;-65
2021/10/17 08:28:47;;;;;;;;;3.00;2.50;;;;;;;;2769367;51;8796;-64
2021/10/17 08:31:13;;;;;;;;;4.25;3.00;;;;;;;;2769486;51;8794;-66
2021/10/17 08:33:38;;;;;;;;;3.00;1.75;;;;;;;;2769470;51;8785;-65
2021/10/17 08:36:04;;;;;;;;;3.75;3.00;;;;;;;;2769390;51;8787;-65
2021/10/17 08:38:30;;;;;;;;;1.50;1.50;;;;;;;;2769300;51;8793;-63
2021/10/17 08:40:56;;;;;;;;;1.40;1.40;;;;;;;;2769007;51;8931;-65
2021/10/17 08:43:22;;;;;;;;;1.25;1.25;;;;;;;;2769415;51;8826;-65
2021/10/17 08:45:48;;;;;;;;;2.50;1.50;;;;;;;;2769010;51;8773;-66
2021/10/17 08:48:13;;;;;;;;;4.00;2.20;;;;;;;;2769551;51;8787;-64
2021/10/17 08:50:40;;;;;;;;;2.25;2.25;;;;;;;;2769262;51;8801;-66
2021/10/17 08:53:06;;;;;;;;;1.20;1.20;;;;;;;;2769220;51;8772;-65
2021/10/17 08:55:31;;;;;;;;;2.00;2.00;;;;;;;;2769381;51;8788;-67
2021/10/17 08:57:57;;;;;;;;;2.75;2.75;;;;;;;;2769100;51;8797;-68
2021/10/17 09:00:33;;;;;;;;;1.00;1.00;;;;;;;;2769239;51;8907;-66
2021/10/17 09:02:59;;;;;;;;;1.40;1.40;;;;;;;;2769268;51;8812;-66
2021/10/17 09:05:39;;;;;;;;;5.40;3.80;;;;;;;;2769162;51;8786;-65
2021/10/17 09:08:08;;;;;;;;;4.40;3.00;;;;;;;;2769376;51;8820;-67
2021/10/17 09:10:34;;;;;;;;;1.60;1.60;;;;;;;;2769390;51;8832;-65
2021/10/17 09:13:13;;;;;;;;;4.00;3.60;;;;;;;;2768744;51;8781;-66
2021/10/17 09:15:39;;;;;;;;;2.80;2.00;;;;;;;;2769432;51;8777;-67
2021/10/17 09:18:05;;;;;;;;;2.40;2.40;;;;;;;;2769204;51;8780;-66
2021/10/17 09:20:35;;;;;;;;;5.75;4.75;;;;;;;;2769156;51;8781;-67
2021/10/17 09:23:02;;;;;;;;;4.20;4.20;;;;;;;;2769224;51;8780;-67
2021/10/17 09:25:37;;;;;;;;;2.00;2.00;;;;;;;;2769251;51;8778;-66
2021/10/17 09:28:16;;;;;;;;;2.00;2.00;;;;;;;;2768725;51;8781;-67
2021/10/17 09:30:56;;;;;;;;;4.00;3.00;;;;;;;;2769099;51;8896;-66
2021/10/17 09:33:22;;;;;;;;;6.80;3.00;;;;;;;;2769250;51;8773;-66
2021/10/17 09:35:47;;;;;;;;;3.40;2.80;;;;;;;;2769281;51;8841;-66
2021/10/17 09:38:15;;;;;;;;;3.00;3.00;;;;;;;;2769175;51;8770;-68
2021/10/17 09:40:43;;;;;;;;;4.60;3.60;;;;;;;;2769010;51;8789;-68
2021/10/17 09:43:11;;;;;;;;;5.40;2.60;;;;;;;;2769040;51;8826;-68
2021/10/17 09:45:37;;;;;;;;;2.60;2.60;;;;;;;;2769300;51;8776;-68
2021/10/17 09:48:03;;;;;;;;;4.40;4.40;;;;;;;;2769038;51;9487;-67
2021/10/17 09:50:29;;;;;;;;;2.60;2.60;;;;;;;;2768874;51;9580;-67
2021/10/17 09:52:58;;;;;;;;;2.60;2.60;;;;;;;;2769106;51;8818;-67
2021/10/17 09:55:24;;;;;;;;;3.80;2.00;;;;;;;;2768922;51;8781;-67
2021/10/17 09:57:51;;;;;;;;;4.20;1.80;;;;;;;;2768766;51;8799;-66
2021/10/17 10:00:17;;;;;;;;;2.00;1.60;;;;;;;;2769133;51;8779;-66
2021/10/17 10:02:47;;;;;;;;;3.20;1.60;;;;;;;;2769094;51;9434;-68
2021/10/17 10:05:21;;;;;;;;;2.60;2.60;;;;;;;;2768770;51;8789;-67
2021/10/17 10:07:49;;;;;;;;;3.80;1.80;;;;;;;;2768505;51;8777;-68
2021/10/17 10:10:16;;;;;;;;;2.00;1.80;;;;;;;;2768863;51;8893;-68
2021/10/17 10:12:42;;;;;;;;;2.00;2.00;;;;;;;;2769012;51;8804;-66
2021/10/17 10:15:08;;;;;;;;;1.50;1.50;;;;;;;;2769041;51;8785;-67
2021/10/17 10:17:36;;;;;;;;;2.00;1.20;;;;;;;;2768775;51;8792;-69
2021/10/17 10:20:02;;;;;;;;;1.00;1.00;;;;;;;;2768898;51;8791;-67
2021/10/17 10:22:31;;;;;;;;;3.00;3.00;;;;;;;;2768963;51;8773;-68
2021/10/17 10:24:58;;;;;;;;;1.00;1.00;;;;;;;;2768650;51;8797;-67
2021/10/17 10:27:24;;;;;;;;;1.00;1.00;;;;;;;;2768839;51;8890;-67
2021/10/17 10:29:49;;;;;;;;;1.20;1.20;;;;;;;;2768850;51;8796;-67
2021/10/17 10:32:22;;;;;;;;;2.25;2.25;;;;;;;;2768853;51;8805;-67
2021/10/17 10:34:49;;;;;;;;;2.20;2.20;;;;;;;;2768878;51;9421;-69
2021/10/17 10:37:15;;;;;;;;;0.80;0.80;;;;;;;;2769093;51;8785;-69
2021/10/17 10:39:59;;;;;;;;;2.20;2.00;;;;;;;;2768850;51;8877;-66
2021/10/17 10:42:46;;;;;;;;;1.60;1.40;;;;;;;;2768789;51;8800;-70
2021/10/17 10:45:24;;;;;;;;;1.80;1.80;;;;;;;;2768761;51;8785;-68
2021/10/17 10:48:08;;;;;;;;;6.20;2.40;;;;;;;;2768841;51;8855;-67
2021/10/17 10:50:34;;;;;;;;;2.20;1.00;;;;;;;;2768849;51;8791;-69
2021/10/17 10:53:00;;;;;;;;;2.00;2.00;;;;;;;;2768817;51;8869;-68
2021/10/17 10:55:43;;;;;;;;;3.75;3.00;;;;;;;;2768531;51;8796;-65
2021/10/17 10:58:25;;;;;;;;;4.40;1.80;;;;;;;;2768335;51;8773;-68
2021/10/17 11:00:51;;;;;;;;;5.40;3.20;;;;;;;;2768539;51;8781;-69
2021/10/17 11:03:18;;;;;;;;;3.00;3.00;;;;;;;;2768639;51;8806;-69
2021/10/17 11:06:13;;;;;;;;;2.60;2.60;;;;;;;;2768657;51;8922;-68
2021/10/17 11:08:40;;;;;;;;;2.40;2.40;;;;;;;;2767472;51;8802;-65
2021/10/17 11:11:06;;;;;;;;;2.00;2.00;;;;;;;;2769609;51;8905;-70
2021/10/17 11:13:33;;;;;;;;;2.00;2.00;;;;;;;;2769499;51;9011;-68
2021/10/17 11:16:00;;;;;;;;;4.20;3.20;;;;;;;;2769648;51;8780;-66
2021/10/17 11:18:44;;;;;;;;;4.20;4.20;;;;;;;;2769471;51;8809;-67
2021/10/17 11:21:10;;;;;;;;;3.40;3.40;;;;;;;;2769653;51;8801;-66
2021/10/17 11:23:37;;;;;;;;;3.00;2.75;;;;;;;;2769694;51;8800;-70
2021/10/17 11:26:07;;;;;;;;;2.60;2.20;;;;;;;;2769606;51;8773;-68
2021/10/17 11:28:34;;;;;;;;;4.80;3.80;;;;;;;;2769544;51;9090;-68
2021/10/17 11:31:06;;;;;;;;;3.80;3.60;;;;;;;;2769577;51;8791;-67
2021/10/17 11:33:32;;;;;;;;;3.80;3.40;;;;;;;;2769752;51;8769;-68
2021/10/17 11:35:58;;;;;;;;;5.00;4.20;;;;;;;;2769948;51;8767;-67
2021/10/17 11:38:24;;;;;;;;;4.20;3.20;;;;;;;;2769513;51;8784;-68
2021/10/17 11:40:57;;;;;;;;;5.80;5.20;;;;;;;;2769180;51;8800;-68
2021/10/17 11:43:30;;;;;;;;;3.80;1.60;;;;;;;;2769722;51;8789;-67
2021/10/17 11:46:00;;;;;;;;;4.20;4.20;;;;;;;;2770204;51;8765;-68
2021/10/17 11:48:26;;;;;;;;;4.20;4.20;;;;;;;;2769649;51;9480;-67
2021/10/17 11:50:51;;;;;;;;;6.50;4.50;;;;;;;;2769828;51;8800;-65
2021/10/17 11:53:17;;;;;;;;;4.75;4.00;;;;;;;;2769696;51;8914;-66
2021/10/17 11:55:50;;;;;;;;;7.00;6.00;;;;;;;;2769519;51;8781;-69
2021/10/17 11:58:22;;;;;;;;;6.40;5.00;;;;;;;;2771501;51;8779;-69
2021/10/17 12:00:56;;;;;;;;;7.20;4.80;;;;;;;;2769489;51;8781;-68
2021/10/17 12:03:23;;;;;;;;;7.40;6.40;;;;;;;;2769393;51;8824;-67
2021/10/17 12:05:51;;;;;;;;;5.40;5.20;;;;;;;;2769407;51;8861;-68
2021/10/17 12:08:22;;;;;;;;;4.60;4.60;;;;;;;;2769656;51;8813;-70
2021/10/17 12:11:02;;;;;;;;;4.60;4.60;;;;;;;;2769543;51;8775;-68
2021/10/17 12:13:29;;;;;;;;;5.60;4.20;;;;;;;;2769611;51;8938;-67
2021/10/17 12:16:03;;;;;;;;;6.80;5.00;;;;;;;;2769496;51;8768;-69
2021/10/17 12:18:28;;;;;;;;;7.20;3.80;;;;;;;;2769075;51;8765;-67
2021/10/17 12:20:54;;;;;;;;;6.20;4.40;;;;;;;;2769260;51;8816;-68
2021/10/17 12:23:20;;;;;;;;;9.25;5.50;;;;;;;;2769442;51;8793;-67
2021/10/17 12:25:46;;;;;;;;;8.80;5.20;;;;;;;;2769437;51;8791;-67
2021/10/17 12:28:15;;;;;;;;;6.75;3.25;;;;;;;;2770109;51;8780;-68
2021/10/17 12:30:41;;;;;;;;;5.00;3.80;;;;;;;;2769993;51;8804;-69
2021/10/17 12:33:11;;;;;;;;;5.25;3.50;;;;;;;;2773397;51;8784;-71
2021/10/17 12:35:38;;;;;;;;;6.20;5.80;;;;;;;;2771239;51;8891;-69
2021/10/17 12:38:04;;;;;;;;;6.00;5.60;;;;;;;;2764017;51;8799;-72
2021/10/17 12:40:30;;;;;;;;;9.60;4.40;;;;;;;;2766965;51;8798;-67
2021/10/17 12:43:00;;;;;;;;;4.50;4.50;;;;;;;;2767233;51;8775;-71
2021/10/17 12:45:30;;;;;;;;;7.00;4.80;;;;;;;;2762700;51;8751;-69
2021/10/17 12:47:56;;;;;;;;;1.80;1.80;;;;;;;;2764338;51;8780;-69
2021/10/17 12:50:22;;;;;;;;;4.60;4.00;;;;;;;;2773257;51;8903;-68
2021/10/17 12:52:54;;;;;;;;;5.00;3.00;;;;;;;;2771608;51;9507;-68
2021/10/17 12:55:20;;;;;;;;;4.60;3.60;;;;;;;;2767417;51;8791;-66
2021/10/17 12:58:02;;;;;;;;;5.00;4.75;;;;;;;;2767179;51;8767;-67
2021/10/17 13:00:28;;;;;;;;;7.40;4.20;;;;;;;;2767169;51;9542;-64
2021/10/17 13:03:09;;;;;;;;;7.00;4.75;;;;;;;;2767178;51;8788;-66
2021/10/17 13:05:45;;;;;;;;;8.20;3.80;;;;;;;;2770345;51;8769;-67
2021/10/17 13:08:11;;;;;;;;;6.00;6.00;;;;;;;;2773280;51;9012;-67
2021/10/17 13:10:36;;;;;;;;;4.80;4.80;;;;;;;;2769568;51;8760;-67
2021/10/17 13:13:13;;;;;;;;;7.75;4.25;;;;;;;;2771790;51;8819;-66
2021/10/17 13:15:38;;;;;;;;;7.00;4.20;;;;;;;;2767281;51;8763;-67
2021/10/17 13:18:05;;;;;;;;;3.25;3.25;;;;;;;;2767380;51;8776;-70
2021/10/17 13:20:31;;;;;;;;;4.80;3.20;;;;;;;;2767051;51;8876;-69
2021/10/17 13:22:58;;;;;;;;;4.40;3.60;;;;;;;;2767067;51;8767;-68
2021/10/17 13:25:25;;;;;;;;;5.60;4.40;;;;;;;;2767414;51;8767;-65
2021/10/17 13:27:52;;;;;;;;;6.00;4.00;;;;;;;;2767315;51;8792;-66
2021/10/17 13:30:18;;;;;;;;;3.80;3.80;;;;;;;;2767026;51;8878;-65
2021/10/17 13:32:44;;;;;;;;;6.25;4.75;;;;;;;;2767081;51;8780;-67
2021/10/17 13:35:10;;;;;;;;;5.60;3.40;;;;;;;;2766955;51;12224;-68
2021/10/17 13:37:37;;;;;;;;;4.00;4.00;;;;;;;;2767221;51;8795;-68
2021/10/17 13:40:03;;;;;;;;;8.40;4.60;;;;;;;;2770780;51;9007;-69
2021/10/17 13:42:29;;;;;;;;;1.20;1.20;;;;;;;;2773191;51;8773;-68
2021/10/17 13:44:54;;;;;;;;;5.75;5.00;;;;;;;;2768986;51;8917;-66
2021/10/17 13:47:20;;;;;;;;;6.50;5.50;;;;;;;;2767074;51;9473;-66
2021/10/17 13:49:46;;;;;;;;;6.50;4.25;;;;;;;;2767397;51;8787;-68
2021/10/17 13:52:11;;;;;;;;;5.40;3.80;;;;;;;;2766722;51;8771;-65
2021/10/17 13:54:37;;;;;;;;;5.00;4.00;;;;;;;;2766950;51;8882;-66
2021/10/17 13:57:03;;;;;;;;;4.00;3.75;;;;;;;;2767220;51;8776;-67
2021/10/17 13:59:29;;;;;;;;;5.60;5.40;;;;;;;;2766900;51;9477;-64
2021/10/17 14:01:55;;;;;;;;;8.00;4.50;;;;;;;;2767135;51;9432;-65
2021/10/17 14:04:21;;;;;;;;;7.60;5.00;;;;;;;;2766825;51;8913;-65
2021/10/17 14:06:46;;;;;;;;;5.00;5.00;;;;;;;;2767019;51;8893;-65
2021/10/17 14:09:12;;;;;;;;;4.25;4.25;;;;;;;;2767165;51;8787;-65
2021/10/17 14:11:38;;;;;;;;;5.40;4.60;;;;;;;;2766869;51;8916;-65
2021/10/17 14:14:04;;;;;;;;;8.25;5.75;;;;;;;;2766982;51;8901;-65
2021/10/17 14:16:29;;;;;;;;;4.00;4.00;;;;;;;;2766860;51;8792;-68
2021/10/17 14:18:55;;;;;;;;;4.00;2.00;;;;;;;;2766907;51;8811;-66
2021/10/17 14:21:21;;;;;;;;;4.00;3.75;;;;;;;;2769137;51;8784;-66
2021/10/17 14:23:46;;;;;;;;;5.75;5.25;;;;;;;;2768799;51;8784;-65
2021/10/17 14:26:13;;;;;;;;;5.00;3.25;;;;;;;;2768992;51;8764;-66
2021/10/17 14:28:38;;;;;;;;;6.60;4.80;;;;;;;;2768941;51;8784;-66
2021/10/17 14:31:04;;;;;;;;;5.00;4.25;;;;;;;;2768841;51;8769;-68
2021/10/17 14:33:30;;;;;;;;;8.50;5.50;;;;;;;;2768654;51;8804;-67
2021/10/17 14:35:55;;;;;;;;;5.50;4.00;;;;;;;;2769087;51;8780;-67
2021/10/17 14:38:21;;;;;;;;;4.75;4.75;;;;;;;;2768883;51;8781;-67
2021/10/17 14:40:48;;;;;;;;;3.00;3.00;;;;;;;;2769000;51;8796;-65
2021/10/17 14:43:15;;;;;;;;;3.75;2.00;;;;;;;;2769745;51;8789;-65
2021/10/17 14:45:40;;;;;;;;;4.20;4.20;;;;;;;;2768813;51;8818;-65
2021/10/17 14:48:06;;;;;;;;;4.00;2.25;;;;;;;;2768841;51;8767;-64
2021/10/17 14:50:32;;;;;;;;;4.75;4.25;;;;;;;;2767596;51;8804;-67
2021/10/17 14:52:57;;;;;;;;;5.00;4.00;;;;;;;;2767550;51;9736;-69